createdAt,value
2023-03-25T00:02:12.888Z,7.50
2023-03-25T00:04:39.345Z,6.15
2023-03-25T00:07:05.757Z,4.97
2023-03-25T00:09:32.200Z,5.72
2023-03-25T00:11:58.526Z,5.22
2023-03-25T00:14:24.889Z,6.32
2023-03-25T00:16:51.314Z,5.40
2023-03-25T00:19:18.018Z,6.72
2023-03-25T00:21:44.357Z,5.40
2023-03-25T00:24:10.768Z,7.00
2023-03-25T00:26:37.205Z,5.32
2023-03-25T00:29:03.832Z,5.53
2023-03-25T00:31:30.266Z,5.70
2023-03-25T00:33:56.635Z,5.90
2023-03-25T00:36:23.251Z,5.57
2023-03-25T00:38:49.974Z,6.78
2023-03-25T00:41:16.303Z,6.00
2023-03-25T00:43:42.676Z,6.20
2023-03-25T00:46:09.223Z,7.57
2023-03-25T00:48:35.945Z,5.55
2023-03-25T00:51:02.580Z,5.03
2023-03-25T00:53:28.902Z,5.95
2023-03-25T00:55:55.477Z,5.45
2023-03-25T00:58:21.812Z,5.85
2023-03-25T01:00:48.165Z,7.85
2023-03-25T01:03:14.554Z,5.75
2023-03-25T01:05:40.981Z,5.82
2023-03-25T01:08:07.318Z,6.38
2023-03-25T01:10:33.763Z,5.40
2023-03-25T01:13:00.270Z,5.60
2023-03-25T01:15:26.732Z,5.53
2023-03-25T01:17:53.221Z,5.22
2023-03-25T01:20:19.678Z,5.50
2023-03-25T01:22:46.366Z,5.18
2023-03-25T01:25:12.723Z,5.35
2023-03-25T01:27:39.494Z,5.18
2023-03-25T01:30:06.008Z,4.78
2023-03-25T01:32:32.422Z,4.75
2023-03-25T01:34:59.446Z,5.80
2023-03-25T01:37:25.806Z,7.75
2023-03-25T01:39:52.149Z,5.00
2023-03-25T01:42:18.506Z,4.63
2023-03-25T01:44:45.012Z,5.05
2023-03-25T01:47:11.566Z,5.72
2023-03-25T01:49:37.965Z,5.85
2023-03-25T01:52:04.746Z,6.22
2023-03-25T01:54:31.635Z,5.93
2023-03-25T01:56:58.480Z,4.47
2023-03-25T01:59:24.965Z,5.53
2023-03-25T02:01:51.324Z,5.13
2023-03-25T02:04:19.419Z,5.38
2023-03-25T02:06:46.180Z,4.43
2023-03-25T02:09:12.932Z,5.85
2023-03-25T02:11:39.562Z,4.90
2023-03-25T02:14:05.953Z,4.40
2023-03-25T02:16:32.505Z,5.03
2023-03-25T02:18:58.936Z,5.45
2023-03-25T02:21:25.386Z,5.85
2023-03-25T02:23:51.738Z,6.15
2023-03-25T02:26:18.159Z,4.85
2023-03-25T02:28:45.141Z,4.45
2023-03-25T02:31:11.563Z,5.68
2023-03-25T02:33:37.953Z,5.10
2023-03-25T02:36:04.613Z,4.90
2023-03-25T02:38:30.974Z,5.30
2023-03-25T02:40:57.423Z,5.47
2023-03-25T02:43:24.192Z,4.85
2023-03-25T02:45:50.616Z,5.25
2023-03-25T02:48:17.554Z,4.40
2023-03-25T02:50:43.978Z,5.18
2023-03-25T02:53:10.536Z,5.53
2023-03-25T02:55:36.801Z,5.05
2023-03-25T02:58:03.318Z,5.50
2023-03-25T03:00:29.646Z,5.57
2023-03-25T03:02:56.026Z,4.40
2023-03-25T03:05:22.464Z,4.97
2023-03-25T03:07:49.325Z,5.05
2023-03-25T03:10:15.680Z,5.22
2023-03-25T03:12:42.086Z,4.35
2023-03-25T03:15:08.408Z,4.60
2023-03-25T03:17:34.813Z,4.32
2023-03-25T03:20:01.305Z,4.70
2023-03-25T03:22:28.499Z,5.63
2023-03-25T03:24:54.858Z,4.30
2023-03-25T03:27:21.498Z,5.50
2023-03-25T03:29:47.837Z,4.95
2023-03-25T03:32:14.173Z,4.63
2023-03-25T03:34:40.673Z,5.05
2023-03-25T03:37:07.085Z,5.05
2023-03-25T03:39:33.449Z,5.30
2023-03-25T03:42:00.231Z,3.83
2023-03-25T03:44:27.374Z,4.97
2023-03-25T03:46:53.676Z,4.85
2023-03-25T03:49:20.457Z,4.20
2023-03-25T03:51:47.151Z,5.07
2023-03-25T03:54:13.620Z,4.82
2023-03-25T03:56:40.968Z,6.05
2023-03-25T03:59:07.372Z,4.88
2023-03-25T04:01:34.050Z,4.70
2023-03-25T04:04:01.158Z,5.07
2023-03-25T04:06:27.529Z,5.18
2023-03-25T04:08:54.036Z,5.05
2023-03-25T04:11:20.501Z,4.25
2023-03-25T04:13:47.818Z,4.57
2023-03-25T04:16:14.214Z,5.50
2023-03-25T04:18:40.841Z,4.65
2023-03-25T04:21:07.157Z,4.72
2023-03-25T04:23:33.671Z,5.55
2023-03-25T04:26:00.049Z,4.97
2023-03-25T04:28:26.459Z,5.63
2023-03-25T04:30:53.264Z,4.43
2023-03-25T04:33:19.585Z,5.43
2023-03-25T04:35:46.233Z,4.63
2023-03-25T04:38:13.363Z,5.43
2023-03-25T04:40:39.708Z,4.43
2023-03-25T04:43:06.186Z,4.32
2023-03-25T04:45:33.089Z,5.38
2023-03-25T04:47:59.589Z,6.60
2023-03-25T04:50:26.090Z,4.40
2023-03-25T04:52:52.466Z,4.55
2023-03-25T04:55:19.711Z,4.82
2023-03-25T04:57:46.129Z,5.25
2023-03-25T05:00:12.554Z,4.68
2023-03-25T05:02:38.907Z,5.03
2023-03-25T05:05:05.312Z,5.28
2023-03-25T05:07:31.791Z,5.13
2023-03-25T05:09:59.006Z,3.63
2023-03-25T05:12:25.504Z,3.92
2023-03-25T05:14:52.053Z,4.22
2023-03-25T05:17:18.444Z,5.68
2023-03-25T05:19:45.454Z,5.18
2023-03-25T05:22:12.437Z,4.28
2023-03-25T05:24:39.106Z,6.45
2023-03-25T05:27:05.607Z,4.80
2023-03-25T05:29:32.626Z,4.82
2023-03-25T05:31:59.511Z,5.30
2023-03-25T05:34:26.171Z,4.55
2023-03-25T05:36:52.526Z,3.75
2023-03-25T05:39:19.033Z,5.70
2023-03-25T05:41:46.046Z,4.05
2023-03-25T05:44:12.520Z,3.33
2023-03-25T05:46:39.573Z,4.35
2023-03-25T05:49:05.938Z,3.80
2023-03-25T05:51:32.320Z,3.88
2023-03-25T05:53:58.957Z,4.00
2023-03-25T05:56:25.563Z,5.20
2023-03-25T05:58:51.883Z,5.00
2023-03-25T06:01:31.845Z,3.92
2023-03-25T06:04:00.032Z,3.75
2023-03-25T06:06:27.266Z,4.68
2023-03-25T06:08:53.608Z,3.97
2023-03-25T06:11:20.026Z,5.68
2023-03-25T06:13:46.446Z,4.55
2023-03-25T06:16:12.851Z,4.20
2023-03-25T06:18:39.245Z,3.58
2023-03-25T06:21:05.706Z,4.18
2023-03-25T06:23:32.113Z,3.75
2023-03-25T06:25:58.629Z,3.88
2023-03-25T06:28:25.560Z,4.55
2023-03-25T06:30:52.095Z,4.20
2023-03-25T06:33:43.047Z,4.57
2023-03-25T06:36:05.736Z,5.30
2023-03-25T06:38:32.521Z,4.55
2023-03-25T06:40:59.646Z,4.13
2023-03-25T06:43:26.081Z,3.95
2023-03-25T06:45:52.850Z,3.72
2023-03-25T06:48:19.824Z,3.35
2023-03-25T06:50:46.248Z,4.88
2023-03-25T06:53:13.273Z,3.92
2023-03-25T06:55:39.714Z,4.88
2023-03-25T06:58:06.169Z,4.47
2023-03-25T07:00:32.499Z,3.58
2023-03-25T07:02:58.882Z,4.28
2023-03-25T07:05:25.434Z,3.13
2023-03-25T07:07:52.040Z,3.75
2023-03-25T07:10:18.552Z,4.20
2023-03-25T07:12:44.931Z,4.10
2023-03-25T07:15:11.346Z,5.53
2023-03-25T07:17:37.732Z,3.95
2023-03-25T07:20:04.159Z,4.15
2023-03-25T07:22:31.211Z,3.17
2023-03-25T07:24:57.935Z,3.75
2023-03-25T07:27:24.220Z,4.93
2023-03-25T07:29:50.666Z,3.35
2023-03-25T07:32:16.974Z,3.88
2023-03-25T07:34:43.846Z,3.80
2023-03-25T07:37:10.287Z,3.88
2023-03-25T07:39:36.920Z,3.80
2023-03-25T07:42:03.273Z,2.55
2023-03-25T07:44:30.331Z,3.67
2023-03-25T07:46:57.337Z,3.40
2023-03-25T07:49:24.318Z,3.97
2023-03-25T07:51:50.640Z,3.53
2023-03-25T07:54:17.137Z,4.72
2023-03-25T07:56:43.676Z,4.55
2023-03-25T07:59:10.087Z,3.13
2023-03-25T08:01:37.096Z,3.63
2023-03-25T08:04:03.495Z,3.10
2023-03-25T08:06:30.008Z,2.70
2023-03-25T08:08:56.521Z,3.63
2023-03-25T08:11:23.206Z,3.78
2023-03-25T08:13:49.458Z,4.00
2023-03-25T08:16:15.880Z,3.28
2023-03-25T08:18:42.509Z,4.30
2023-03-25T08:21:08.972Z,3.92
2023-03-25T08:23:35.279Z,3.72
2023-03-25T08:26:01.633Z,3.53
2023-03-25T08:28:28.096Z,3.63
2023-03-25T08:30:54.440Z,4.30
2023-03-25T08:33:20.954Z,3.00
2023-03-25T08:35:47.476Z,3.63
2023-03-25T08:38:13.861Z,3.60
2023-03-25T08:40:40.213Z,3.55
2023-03-25T08:43:06.869Z,2.72
2023-03-25T08:45:33.254Z,4.25
2023-03-25T08:47:59.845Z,3.78
2023-03-25T08:50:26.348Z,4.00
2023-03-25T08:52:53.289Z,3.22
2023-03-25T08:55:19.727Z,2.65
2023-03-25T08:57:46.037Z,3.60
2023-03-25T09:00:12.415Z,2.90
2023-03-25T09:02:38.761Z,3.35
2023-03-25T09:05:05.189Z,2.20
2023-03-25T09:07:31.575Z,3.05
2023-03-25T09:09:57.900Z,3.53
2023-03-25T09:12:24.553Z,3.38
2023-03-25T09:14:51.034Z,2.60
2023-03-25T09:17:17.371Z,3.33
2023-03-25T09:19:43.734Z,3.45
2023-03-25T09:22:10.064Z,3.63
2023-03-25T09:24:36.469Z,6.45
2023-03-25T09:27:03.016Z,5.28
2023-03-25T09:29:29.324Z,3.25
2023-03-25T09:31:55.782Z,3.50
2023-03-25T09:34:22.215Z,2.63
2023-03-25T09:36:48.695Z,2.70
2023-03-25T09:39:15.032Z,2.42
2023-03-25T09:41:41.765Z,4.78
2023-03-25T09:44:08.178Z,4.55
2023-03-25T09:46:35.011Z,3.72
2023-03-25T09:49:01.415Z,3.45
2023-03-25T09:51:27.838Z,3.20
2023-03-25T09:53:54.236Z,3.45
2023-03-25T09:56:20.600Z,4.05
2023-03-25T09:58:46.988Z,3.40
2023-03-25T10:01:13.520Z,2.80
2023-03-25T10:03:40.037Z,3.03
2023-03-25T10:06:06.511Z,2.53
2023-03-25T10:08:33.001Z,4.25
2023-03-25T10:10:59.311Z,2.70
2023-03-25T10:13:25.645Z,2.80
2023-03-25T10:15:52.300Z,3.13
2023-03-25T10:18:18.790Z,3.05
2023-03-25T10:20:45.288Z,2.90
2023-03-25T10:23:11.919Z,2.88
2023-03-25T10:25:38.299Z,3.13
2023-03-25T10:28:04.630Z,2.58
2023-03-25T10:30:30.961Z,3.35
2023-03-25T10:32:57.528Z,3.17
2023-03-25T10:35:24.064Z,3.72
2023-03-25T10:37:50.454Z,2.75
2023-03-25T10:40:16.907Z,4.05
2023-03-25T10:42:43.812Z,3.45
2023-03-25T10:45:10.335Z,2.38
2023-03-25T10:47:37.118Z,3.00
2023-03-25T10:50:03.591Z,3.05
2023-03-25T10:52:29.967Z,3.38
2023-03-25T10:54:56.427Z,3.20
2023-03-25T10:57:22.859Z,2.05
2023-03-25T10:59:49.409Z,4.22
2023-03-25T11:02:15.810Z,3.42
2023-03-25T11:04:42.457Z,2.75
2023-03-25T11:07:09.000Z,2.45
2023-03-25T11:09:35.551Z,3.05
2023-03-25T11:12:01.884Z,3.65
2023-03-25T11:14:28.436Z,2.50
2023-03-25T11:22:36.818Z,2.22
2023-03-25T11:25:03.200Z,2.33
2023-03-25T11:30:19.776Z,2.50
2023-03-25T11:32:46.193Z,2.55
2023-03-25T11:37:57.482Z,2.25
2023-03-25T11:40:24.918Z,3.90
2023-03-25T11:42:51.250Z,2.13
2023-03-25T11:45:17.637Z,2.40
2023-03-25T11:47:44.462Z,2.28
2023-03-25T11:50:10.848Z,4.85
2023-03-25T11:52:37.258Z,1.83
2023-03-25T11:55:03.632Z,2.70
2023-03-25T11:57:32.190Z,2.53
2023-03-25T11:59:59.063Z,4.57
2023-03-25T12:02:25.557Z,2.55
2023-03-25T12:04:51.947Z,2.33
2023-03-25T12:07:18.411Z,2.90
2023-03-25T12:09:44.740Z,1.52
2023-03-25T12:12:11.502Z,2.30
2023-03-25T12:14:37.837Z,2.38
2023-03-25T12:17:04.295Z,2.90
2023-03-25T12:19:30.795Z,1.73
2023-03-25T12:21:57.284Z,2.97
2023-03-25T12:24:23.796Z,2.22
2023-03-25T12:26:50.269Z,2.42
2023-03-25T12:29:16.874Z,2.60
2023-03-25T12:31:43.331Z,4.00
2023-03-25T12:34:09.852Z,204.70
2023-03-25T12:36:36.335Z,374.02
2023-03-25T12:39:03.387Z,373.25
2023-03-25T12:41:29.867Z,290.23
2023-03-25T12:43:56.150Z,250.20
2023-03-25T12:46:22.782Z,257.40
2023-03-25T12:48:49.155Z,266.60
2023-03-25T12:51:16.007Z,239.70
2023-03-25T12:53:42.307Z,280.88
2023-03-25T12:56:10.748Z,472.15
2023-03-25T12:58:38.083Z,447.92
2023-03-25T13:01:04.520Z,477.67
2023-03-25T13:03:32.045Z,423.55
2023-03-25T13:05:58.659Z,404.63
2023-03-25T13:08:25.191Z,359.42
2023-03-25T13:10:52.011Z,355.15
2023-03-25T13:13:18.521Z,311.10
2023-03-25T13:15:45.042Z,267.23
2023-03-25T13:18:11.425Z,234.38
2023-03-25T13:20:38.083Z,208.48
2023-03-25T13:23:04.581Z,1168.10
2023-03-25T13:25:31.134Z,222.85
2023-03-25T13:27:57.546Z,193.10
2023-03-25T13:30:23.939Z,172.63
2023-03-25T13:32:50.456Z,160.15
2023-03-25T13:35:16.947Z,156.13
2023-03-25T13:37:43.321Z,141.48
2023-03-25T13:40:09.692Z,134.60
2023-03-25T13:42:36.127Z,119.82
2023-03-25T13:45:03.275Z,104.97
2023-03-25T13:47:29.645Z,102.03
2023-03-25T13:49:56.020Z,87.25
2023-03-25T13:52:22.686Z,81.78
2023-03-25T13:54:49.142Z,77.53
2023-03-25T13:57:15.432Z,69.75
2023-03-25T13:59:41.839Z,59.65
2023-03-25T14:02:08.458Z,56.47
2023-03-25T14:04:35.321Z,51.33
2023-03-25T14:07:01.661Z,47.47
2023-03-25T14:09:28.197Z,45.95
2023-03-25T14:11:54.555Z,46.40
2023-03-25T14:14:20.920Z,38.25
2023-03-25T14:16:47.276Z,38.80
2023-03-25T14:19:13.645Z,35.70
2023-03-25T14:21:40.322Z,39.00
2023-03-25T14:24:06.584Z,34.88
2023-03-25T14:26:33.047Z,32.25
2023-03-25T14:28:59.412Z,31.42
2023-03-25T14:31:25.812Z,29.80
2023-03-25T14:33:52.577Z,30.45
2023-03-25T14:36:18.975Z,28.17
2023-03-25T14:38:45.557Z,240.68
2023-03-25T14:41:12.181Z,237.88
2023-03-25T14:43:38.745Z,201.50
2023-03-25T14:46:05.183Z,182.07
2023-03-25T14:48:31.696Z,175.60
2023-03-25T14:50:58.384Z,164.00
2023-03-25T14:53:24.750Z,149.85
2023-03-25T14:55:51.250Z,148.90
2023-03-25T14:58:17.611Z,181.40
2023-03-25T15:00:43.978Z,174.60
2023-03-25T15:03:10.273Z,165.82
2023-03-25T15:05:36.733Z,156.57
2023-03-25T15:08:03.450Z,144.10
2023-03-25T15:10:29.901Z,145.35
2023-03-25T15:12:56.594Z,132.57
2023-03-25T15:15:23.048Z,124.00
2023-03-25T15:17:49.525Z,121.85
2023-03-25T15:20:15.898Z,113.25
2023-03-25T15:22:42.274Z,110.75
2023-03-25T15:25:09.263Z,106.75
2023-03-25T15:27:35.837Z,99.53
2023-03-25T15:30:02.260Z,267.83
2023-03-25T15:32:29.355Z,293.55
2023-03-25T15:34:55.709Z,262.05
2023-03-25T15:37:22.747Z,246.27
2023-03-25T15:39:52.790Z,229.32
2023-03-25T15:42:19.320Z,213.57
2023-03-25T15:44:45.681Z,204.15
2023-03-25T15:47:13.474Z,197.90
2023-03-25T15:49:39.911Z,185.90
2023-03-25T15:52:06.590Z,185.85
2023-03-25T15:54:32.965Z,171.43
2023-03-25T15:56:59.662Z,177.43
2023-03-25T15:59:26.214Z,158.32
2023-03-25T16:01:52.696Z,151.75
2023-03-25T16:04:19.327Z,149.13
2023-03-25T16:06:46.224Z,145.80
2023-03-25T16:09:12.588Z,137.55
2023-03-25T16:11:38.981Z,133.68
2023-03-25T16:14:05.357Z,122.20
2023-03-25T16:16:31.784Z,118.28
2023-03-25T16:18:58.322Z,111.35
2023-03-25T16:21:24.605Z,105.93
2023-03-25T16:23:51.267Z,112.35
2023-03-25T16:26:18.028Z,99.32
2023-03-25T16:28:44.436Z,107.40
2023-03-25T16:31:10.804Z,97.07
2023-03-25T16:33:37.451Z,93.18
2023-03-25T16:36:04.264Z,92.60
2023-03-25T16:44:21.891Z,76.18
2023-03-25T16:46:48.239Z,72.93
2023-03-25T16:49:14.578Z,72.05
2023-03-25T16:51:40.914Z,66.45
2023-03-25T16:54:07.202Z,61.70
2023-03-25T16:56:33.664Z,51.78
2023-03-25T16:59:00.288Z,43.22
2023-03-25T17:01:27.144Z,41.10
2023-03-25T17:03:53.482Z,97.80
2023-03-25T17:06:20.147Z,247.57
2023-03-25T17:08:46.492Z,210.60
2023-03-25T17:11:12.894Z,204.57
2023-03-25T17:13:39.330Z,235.63
2023-03-25T17:16:06.050Z,285.98
2023-03-25T17:18:33.462Z,300.33
2023-03-25T17:20:59.813Z,280.10
2023-03-25T17:23:26.173Z,262.70
2023-03-25T17:25:52.511Z,260.45
2023-03-25T17:28:18.979Z,250.45
2023-03-25T17:30:45.703Z,246.43
2023-03-25T17:33:12.327Z,239.18
2023-03-25T17:35:38.707Z,245.38
2023-03-25T17:38:05.750Z,239.68
2023-03-25T17:40:32.186Z,227.18
2023-03-25T17:42:58.538Z,219.60
2023-03-25T17:45:25.234Z,223.68
2023-03-25T17:47:51.911Z,215.63
2023-03-25T17:50:18.538Z,212.05
2023-03-25T17:52:45.221Z,204.30
2023-03-25T17:55:11.576Z,206.57
2023-03-25T17:57:38.174Z,201.50
2023-03-25T18:00:04.562Z,198.88
2023-03-25T18:02:30.935Z,190.45
2023-03-25T18:04:57.646Z,191.23
2023-03-25T18:07:23.977Z,190.73
2023-03-25T18:09:50.306Z,182.85
2023-03-25T18:12:16.573Z,178.40
2023-03-25T18:14:43.265Z,177.45
2023-03-25T18:17:09.640Z,171.50
2023-03-25T18:19:36.222Z,169.93
2023-03-25T18:22:13.870Z,171.48
2023-03-25T18:24:45.567Z,170.23
2023-03-25T18:27:12.110Z,165.60
2023-03-25T18:29:38.671Z,163.32
2023-03-25T18:32:05.394Z,160.00
2023-03-25T18:34:31.784Z,161.23
2023-03-25T18:36:58.112Z,154.65
2023-03-25T18:39:25.014Z,155.40
2023-03-25T18:41:51.480Z,151.85
2023-03-25T18:44:17.951Z,150.10
2023-03-25T18:46:44.233Z,144.70
2023-03-25T18:49:10.899Z,143.80
2023-03-25T18:51:37.752Z,140.35
2023-03-25T18:54:04.190Z,136.98
2023-03-25T18:56:30.544Z,137.65
2023-03-25T18:58:56.890Z,134.52
2023-03-25T19:01:23.388Z,130.30
2023-03-25T19:03:49.881Z,127.35
2023-03-25T19:06:16.927Z,128.23
2023-03-25T19:08:43.572Z,125.07
2023-03-25T19:11:19.995Z,118.05
2023-03-25T19:13:48.616Z,120.38
2023-03-25T19:16:14.952Z,117.78
2023-03-25T19:18:41.507Z,115.13
2023-03-25T19:21:07.845Z,113.80
2023-03-25T19:23:34.457Z,110.10
2023-03-25T19:26:00.810Z,110.90
2023-03-25T19:28:27.182Z,109.03
2023-03-25T19:30:53.718Z,107.53
2023-03-25T19:33:20.444Z,106.70
2023-03-25T19:35:46.865Z,105.10
2023-03-25T19:38:13.281Z,100.95
2023-03-25T19:40:39.879Z,100.57
2023-03-25T19:43:06.703Z,102.72
2023-03-25T19:45:33.210Z,98.03
2023-03-25T19:47:59.518Z,98.75
2023-03-25T19:50:26.135Z,96.88
2023-03-25T19:52:52.450Z,93.75
2023-03-25T19:55:19.316Z,93.55
2023-03-25T19:57:45.961Z,92.18
2023-03-25T20:00:12.449Z,90.60
2023-03-25T20:02:39.580Z,91.95
2023-03-25T20:05:06.313Z,90.22
2023-03-25T20:07:32.689Z,86.95
2023-03-25T20:10:06.757Z,83.50
2023-03-25T20:12:43.314Z,85.35
2023-03-25T20:15:10.066Z,81.75
2023-03-25T20:17:36.500Z,81.35
2023-03-25T20:20:03.127Z,77.80
2023-03-25T20:22:29.788Z,80.72
2023-03-25T20:24:56.646Z,74.65
2023-03-25T20:27:23.269Z,76.35
2023-03-25T20:29:49.934Z,71.38
2023-03-25T20:32:16.708Z,72.75
2023-03-25T20:34:43.044Z,71.55
2023-03-25T20:37:09.342Z,70.95
2023-03-25T20:39:36.093Z,68.28
2023-03-25T20:42:02.821Z,69.35
2023-03-25T20:44:29.174Z,67.57
2023-03-25T20:46:55.663Z,66.30
2023-03-25T20:49:21.991Z,64.57
2023-03-25T20:51:48.500Z,64.57
2023-03-25T20:54:15.383Z,62.67
2023-03-25T20:56:41.731Z,59.33
2023-03-25T20:59:08.244Z,58.95
2023-03-25T21:01:35.049Z,57.58
2023-03-25T21:04:01.733Z,59.67
2023-03-25T21:06:28.678Z,57.17
2023-03-25T21:08:55.702Z,56.85
2023-03-25T21:11:22.929Z,56.42
2023-03-25T21:13:49.658Z,56.15
2023-03-25T21:16:15.989Z,55.25
2023-03-25T21:18:42.387Z,54.25
2023-03-25T21:21:08.851Z,53.13
2023-03-25T21:23:35.278Z,51.10
2023-03-25T21:26:01.619Z,50.30
2023-03-25T21:28:28.496Z,51.25
2023-03-25T21:30:54.821Z,50.60
2023-03-25T21:33:21.190Z,48.22
2023-03-25T21:35:53.809Z,48.47
2023-03-25T21:38:28.548Z,47.47
2023-03-25T21:40:56.099Z,46.53
2023-03-25T21:43:22.617Z,45.72
2023-03-25T21:45:49.116Z,45.10
2023-03-25T21:48:15.491Z,45.45
2023-03-25T21:50:41.907Z,45.53
2023-03-25T21:53:08.429Z,43.92
2023-03-25T21:55:34.734Z,43.58
2023-03-25T21:58:01.704Z,44.03
2023-03-25T22:00:28.241Z,42.60
2023-03-25T22:02:54.946Z,40.90
2023-03-25T22:05:21.434Z,40.28
2023-03-25T22:07:47.812Z,40.05
2023-03-25T22:10:14.170Z,39.28
2023-03-25T22:12:40.651Z,39.13
2023-03-25T22:15:07.087Z,40.10
2023-03-25T22:17:33.665Z,37.97
2023-03-25T22:20:00.068Z,39.53
2023-03-25T22:22:26.438Z,36.42
2023-03-25T22:24:53.033Z,36.42
2023-03-25T22:27:19.370Z,35.70
2023-03-25T22:29:45.849Z,36.10
2023-03-25T22:32:12.256Z,33.08
2023-03-25T22:34:38.655Z,34.67
2023-03-25T22:37:04.950Z,33.53
2023-03-25T22:39:31.695Z,32.25
2023-03-25T22:41:58.175Z,33.35
2023-03-25T22:44:24.482Z,32.83
2023-03-25T22:46:50.824Z,31.17
2023-03-25T22:49:17.174Z,31.65
2023-03-25T22:51:43.464Z,29.60
2023-03-25T22:54:09.878Z,28.85
2023-03-25T22:56:36.502Z,29.02
2023-03-25T22:59:03.459Z,27.83
2023-03-25T23:01:29.883Z,28.20
2023-03-25T23:03:56.223Z,28.65
2023-03-25T23:06:22.567Z,26.35
2023-03-25T23:08:49.307Z,26.65
2023-03-25T23:11:16.973Z,25.73
2023-03-25T23:13:44.960Z,25.27
2023-03-25T23:16:11.432Z,25.50
2023-03-25T23:18:37.882Z,25.45
2023-03-25T23:21:04.237Z,24.67
2023-03-25T23:23:31.082Z,24.00
2023-03-25T23:25:57.487Z,23.50
2023-03-25T23:28:29.959Z,22.90
2023-03-25T23:30:56.487Z,23.42
2023-03-25T23:33:23.070Z,23.83
2023-03-25T23:35:49.462Z,22.23
2023-03-25T23:38:15.900Z,21.48
2023-03-25T23:40:42.323Z,23.60
2023-03-25T23:43:08.957Z,20.80
2023-03-25T23:45:35.406Z,21.27
2023-03-25T23:48:01.866Z,21.67
2023-03-25T23:50:28.497Z,20.08
2023-03-25T23:52:55.127Z,21.58
2023-03-25T23:55:21.474Z,20.98
2023-03-25T23:57:48.059Z,18.75
